createdAt,value
2019-03-20T00:00:04.537Z,14.80
2019-03-20T00:00:35.793Z,14.25
2019-03-20T00:01:08.045Z,14.98
2019-03-20T00:01:43.621Z,15.05
2019-03-20T00:02:12.314Z,14.95
2019-03-20T00:02:43.894Z,14.70
2019-03-20T00:03:15.134Z,14.80
2019-03-20T00:03:46.383Z,13.58
2019-03-20T00:04:17.587Z,14.00
2019-03-20T00:04:49.946Z,14.50
2019-03-20T00:05:21.485Z,15.20
2019-03-20T00:05:52.712Z,15.28
2019-03-20T00:06:24.879Z,14.87
2019-03-20T00:06:56.086Z,14.30
2019-03-20T00:07:27.304Z,14.68
2019-03-20T00:07:58.586Z,17.02
2019-03-20T00:08:29.790Z,17.90
2019-03-20T00:09:01.030Z,16.23
2019-03-20T00:09:32.225Z,15.15
2019-03-20T00:10:03.438Z,15.88
2019-03-20T00:10:34.638Z,15.55
2019-03-20T00:11:05.842Z,16.23
2019-03-20T00:11:37.050Z,16.15
2019-03-20T00:12:08.264Z,16.27
2019-03-20T00:12:39.521Z,16.37
2019-03-20T00:13:10.727Z,16.50
2019-03-20T00:13:41.934Z,17.48
2019-03-20T00:14:13.141Z,16.82
2019-03-20T00:14:44.359Z,18.50
2019-03-20T00:15:15.554Z,18.70
2019-03-20T00:15:46.773Z,18.20
2019-03-20T00:16:18.002Z,17.95
2019-03-20T00:16:49.217Z,18.98
2019-03-20T00:17:20.469Z,17.90
2019-03-20T00:17:51.682Z,17.62
2019-03-20T00:18:22.893Z,18.75
2019-03-20T00:18:54.088Z,18.23
2019-03-20T00:19:25.293Z,18.52
2019-03-20T00:19:56.502Z,19.55
2019-03-20T00:20:27.706Z,18.80
2019-03-20T00:20:58.912Z,18.62
2019-03-20T00:21:30.119Z,20.23
2019-03-20T00:22:01.318Z,19.62
2019-03-20T00:22:32.614Z,18.57
2019-03-20T00:23:03.852Z,17.80
2019-03-20T00:23:35.096Z,18.27
2019-03-20T00:24:06.314Z,18.90
2019-03-20T00:24:37.553Z,19.17
2019-03-20T00:25:08.766Z,19.57
2019-03-20T00:25:39.981Z,18.85
2019-03-20T00:26:11.189Z,18.90
2019-03-20T00:26:42.405Z,19.48
2019-03-20T00:27:13.608Z,19.10
2019-03-20T00:27:44.895Z,19.17
2019-03-20T00:28:16.099Z,18.23
2019-03-20T00:28:47.310Z,19.95
2019-03-20T00:29:18.509Z,19.15
2019-03-20T00:29:49.731Z,19.60
2019-03-20T00:30:20.973Z,19.67
2019-03-20T00:30:52.210Z,19.52
2019-03-20T00:31:23.418Z,20.60
2019-03-20T00:31:54.630Z,19.90
2019-03-20T00:32:25.840Z,21.40
2019-03-20T00:32:57.116Z,21.57
2019-03-20T00:33:28.327Z,21.15
2019-03-20T00:33:59.528Z,21.33
2019-03-20T00:34:30.732Z,23.35
2019-03-20T00:35:01.944Z,22.77
2019-03-20T00:35:33.210Z,22.55
2019-03-20T00:36:04.418Z,21.52
2019-03-20T00:36:35.622Z,21.60
2019-03-20T00:37:06.830Z,22.45
2019-03-20T00:37:38.075Z,21.27
2019-03-20T00:38:09.320Z,20.60
2019-03-20T00:38:40.514Z,20.30
2019-03-20T00:39:11.732Z,20.05
2019-03-20T00:39:42.937Z,19.62
2019-03-20T00:40:14.141Z,21.52
2019-03-20T00:40:45.382Z,20.32
2019-03-20T00:41:16.584Z,21.68
2019-03-20T00:41:48.640Z,21.80
2019-03-20T00:42:19.855Z,19.42
2019-03-20T00:42:51.081Z,19.02
2019-03-20T00:43:22.283Z,19.50
2019-03-20T00:43:53.500Z,18.45
2019-03-20T00:44:24.750Z,18.70
2019-03-20T00:44:55.955Z,17.82
2019-03-20T00:45:27.167Z,18.12
2019-03-20T00:45:58.376Z,18.25
2019-03-20T00:46:29.606Z,18.20
2019-03-20T00:47:00.822Z,17.87
2019-03-20T00:47:32.027Z,19.87
2019-03-20T00:48:03.292Z,18.62
2019-03-20T00:48:34.510Z,17.98
2019-03-20T00:49:05.707Z,17.77
2019-03-20T00:49:36.918Z,18.25
2019-03-20T00:50:08.148Z,19.10
2019-03-20T00:50:39.340Z,18.55
2019-03-20T00:51:10.530Z,19.07
2019-03-20T00:51:41.740Z,18.85
2019-03-20T00:52:12.946Z,18.23
2019-03-20T00:52:44.168Z,19.95
2019-03-20T00:53:15.432Z,18.75
2019-03-20T00:53:46.628Z,18.32
2019-03-20T00:54:17.847Z,17.82
2019-03-20T00:54:49.054Z,17.67
2019-03-20T00:55:20.271Z,19.98
2019-03-20T00:55:51.462Z,19.40
2019-03-20T00:56:22.661Z,18.95
2019-03-20T00:56:53.870Z,19.77
2019-03-20T00:57:25.072Z,19.95
2019-03-20T00:57:56.285Z,20.80
2019-03-20T00:58:27.551Z,18.98
2019-03-20T00:58:58.759Z,19.77
2019-03-20T00:59:29.968Z,18.92
2019-03-20T01:00:01.187Z,19.80
2019-03-20T01:00:32.390Z,20.68
2019-03-20T01:01:03.592Z,21.05
2019-03-20T01:01:34.808Z,19.15
2019-03-20T01:02:06.005Z,19.25
2019-03-20T01:02:37.198Z,19.17
2019-03-20T01:03:08.478Z,18.55
2019-03-20T01:03:39.687Z,19.23
2019-03-20T01:04:10.920Z,19.55
2019-03-20T01:04:42.122Z,19.77
2019-03-20T01:05:13.380Z,20.15
2019-03-20T01:05:44.583Z,18.98
2019-03-20T01:06:15.784Z,19.73
2019-03-20T01:06:46.990Z,20.25
2019-03-20T01:07:18.193Z,19.05
2019-03-20T01:07:49.460Z,19.02
2019-03-20T01:08:20.661Z,19.20
2019-03-20T01:08:51.858Z,20.55
2019-03-20T01:09:23.058Z,19.57
2019-03-20T01:09:54.261Z,18.73
2019-03-20T01:10:25.471Z,18.90
2019-03-20T01:10:56.705Z,20.27
2019-03-20T01:11:27.898Z,18.32
2019-03-20T01:11:59.106Z,19.15
2019-03-20T01:12:30.302Z,18.62
2019-03-20T01:13:01.514Z,19.12
2019-03-20T01:13:32.727Z,18.23
2019-03-20T01:14:03.933Z,18.52
2019-03-20T01:14:35.139Z,18.07
2019-03-20T01:15:06.340Z,17.20
2019-03-20T01:15:37.560Z,17.27
2019-03-20T01:16:08.778Z,17.12
2019-03-20T01:16:39.990Z,17.15
2019-03-20T01:17:11.240Z,17.55
2019-03-20T01:17:42.457Z,17.92
2019-03-20T01:18:13.653Z,17.92
2019-03-20T01:18:44.901Z,18.02
2019-03-20T01:19:16.121Z,18.15
2019-03-20T01:19:47.309Z,17.15
2019-03-20T01:20:18.539Z,15.48
2019-03-20T01:20:49.742Z,15.08
2019-03-20T01:21:20.964Z,15.88
2019-03-20T01:21:52.206Z,16.12
2019-03-20T01:22:23.417Z,16.77
2019-03-20T01:22:54.619Z,15.38
2019-03-20T01:23:25.833Z,15.38
2019-03-20T01:23:57.051Z,15.03
2019-03-20T01:24:28.255Z,14.40
2019-03-20T01:24:59.454Z,15.48
2019-03-20T01:25:30.648Z,14.78
2019-03-20T01:26:01.865Z,13.45
2019-03-20T01:26:33.123Z,13.05
2019-03-20T01:27:04.351Z,14.65
2019-03-20T01:27:35.552Z,15.05
2019-03-20T01:28:06.765Z,14.55
2019-03-20T01:28:37.987Z,14.98
2019-03-20T01:29:09.192Z,15.80
2019-03-20T01:29:40.390Z,14.78
2019-03-20T01:30:11.590Z,14.75
2019-03-20T01:30:42.844Z,13.60
2019-03-20T01:31:14.057Z,14.40
2019-03-20T01:31:45.297Z,14.25
2019-03-20T01:32:16.531Z,15.15
2019-03-20T01:32:47.737Z,14.87
2019-03-20T01:33:18.987Z,12.63
2019-03-20T01:33:50.202Z,12.23
2019-03-20T01:34:21.406Z,11.45
2019-03-20T01:34:52.621Z,10.82
2019-03-20T01:35:24.326Z,11.25
2019-03-20T01:35:55.609Z,11.20
2019-03-20T01:36:27.006Z,11.65
2019-03-20T01:36:58.212Z,12.30
2019-03-20T01:37:29.418Z,12.60
2019-03-20T01:38:00.626Z,12.40
2019-03-20T01:38:31.896Z,11.55
2019-03-20T01:39:03.106Z,12.78
2019-03-20T01:39:34.329Z,13.13
2019-03-20T01:40:05.568Z,13.00
2019-03-20T01:40:36.763Z,12.78
2019-03-20T01:41:07.974Z,11.12
2019-03-20T01:41:39.225Z,12.05
2019-03-20T01:42:10.437Z,11.05
2019-03-20T01:42:41.734Z,11.45
2019-03-20T01:43:12.936Z,11.33
2019-03-20T01:43:44.217Z,10.15
2019-03-20T01:44:15.433Z,11.25
2019-03-20T01:44:46.643Z,12.15
2019-03-20T01:45:17.989Z,13.05
2019-03-20T01:45:49.185Z,12.15
2019-03-20T01:46:20.446Z,12.68
2019-03-20T01:46:51.617Z,12.20
2019-03-20T01:47:22.830Z,13.10
2019-03-20T01:47:54.024Z,11.05
2019-03-20T01:48:25.224Z,11.35
2019-03-20T01:48:56.441Z,12.00
2019-03-20T01:49:27.660Z,11.20
2019-03-20T01:49:58.865Z,10.48
2019-03-20T01:50:30.092Z,11.30
2019-03-20T01:51:01.299Z,11.33
2019-03-20T01:51:32.505Z,10.78
2019-03-20T01:52:03.731Z,10.63
2019-03-20T01:52:34.982Z,12.15
2019-03-20T01:53:06.195Z,12.35
2019-03-20T01:53:37.401Z,11.50
2019-03-20T01:54:08.615Z,12.20
2019-03-20T01:54:39.821Z,11.12
2019-03-20T01:55:11.033Z,10.90
2019-03-20T01:55:42.246Z,10.25
2019-03-20T01:56:13.460Z,11.15
2019-03-20T01:56:44.672Z,11.00
2019-03-20T01:57:15.873Z,10.55
2019-03-20T01:57:47.137Z,10.40
2019-03-20T01:58:18.344Z,10.65
2019-03-20T01:58:49.557Z,10.85
2019-03-20T01:59:20.780Z,11.40
2019-03-20T01:59:52.002Z,11.08
2019-03-20T02:00:23.235Z,11.03
2019-03-20T02:00:54.405Z,11.05
2019-03-20T02:01:25.613Z,11.78
2019-03-20T02:01:56.850Z,11.45
2019-03-20T02:02:28.077Z,11.83
2019-03-20T02:02:59.280Z,11.40
2019-03-20T02:03:30.529Z,11.60
2019-03-20T02:04:01.729Z,11.00
2019-03-20T02:04:32.940Z,10.90
2019-03-20T02:05:04.163Z,11.85
2019-03-20T02:05:36.590Z,10.23
2019-03-20T02:06:08.071Z,10.78
2019-03-20T02:06:39.336Z,11.35
2019-03-20T02:07:10.540Z,11.65
2019-03-20T02:07:41.770Z,11.83
2019-03-20T02:08:12.984Z,12.20
2019-03-20T02:08:44.195Z,12.10
2019-03-20T02:09:15.404Z,11.53
2019-03-20T02:09:46.614Z,11.12
2019-03-20T02:10:17.827Z,11.70
2019-03-20T02:10:49.027Z,11.83
2019-03-20T02:11:20.327Z,11.50
2019-03-20T02:11:51.581Z,12.23
2019-03-20T02:12:22.795Z,11.57
2019-03-20T02:12:53.992Z,12.85
2019-03-20T02:13:25.195Z,12.65
2019-03-20T02:13:56.406Z,11.95
2019-03-20T02:14:27.611Z,12.35
2019-03-20T02:14:58.816Z,12.20
2019-03-20T02:15:38.651Z,12.40
2019-03-20T02:16:02.946Z,12.37
2019-03-20T02:16:34.162Z,11.53
2019-03-20T02:17:05.418Z,12.73
2019-03-20T02:17:36.621Z,12.98
2019-03-20T02:18:07.827Z,12.93
2019-03-20T02:18:39.040Z,12.80
2019-03-20T02:19:10.242Z,12.95
2019-03-20T02:19:41.449Z,12.82
2019-03-20T02:20:12.656Z,12.90
2019-03-20T02:20:43.853Z,14.55
2019-03-20T02:21:15.066Z,14.23
2019-03-20T02:21:46.290Z,13.43
2019-03-20T02:22:17.520Z,14.40
2019-03-20T02:22:48.725Z,14.47
2019-03-20T02:23:19.926Z,14.25
2019-03-20T02:23:51.120Z,14.35
2019-03-20T02:24:22.333Z,13.88
2019-03-20T02:24:53.543Z,14.35
2019-03-20T02:25:24.762Z,14.13
2019-03-20T02:25:56.006Z,14.78
2019-03-20T02:26:27.222Z,14.43
2019-03-20T02:26:58.440Z,13.65
2019-03-20T02:27:29.639Z,13.00
2019-03-20T02:28:00.839Z,13.62
2019-03-20T02:28:32.050Z,13.95
2019-03-20T02:29:03.282Z,13.83
2019-03-20T02:29:34.471Z,13.22
2019-03-20T02:30:05.671Z,13.30
2019-03-20T02:30:36.880Z,13.25
2019-03-20T02:31:08.189Z,13.13
2019-03-20T02:31:39.389Z,13.05
2019-03-20T02:32:10.601Z,12.58
2019-03-20T02:32:41.816Z,12.85
2019-03-20T02:33:13.018Z,13.50
2019-03-20T02:33:44.280Z,12.35
2019-03-20T02:34:15.487Z,13.55
2019-03-20T02:34:46.690Z,12.78
2019-03-20T02:35:17.910Z,12.85
2019-03-20T02:35:51.801Z,14.23
2019-03-20T02:36:22.118Z,13.78
2019-03-20T02:36:53.319Z,14.70
2019-03-20T02:37:24.527Z,14.30
2019-03-20T02:37:55.725Z,13.62
2019-03-20T02:38:26.969Z,14.68
2019-03-20T02:38:58.184Z,14.60
2019-03-20T02:39:29.386Z,15.32
2019-03-20T02:40:00.605Z,15.70
2019-03-20T02:40:31.828Z,15.55
2019-03-20T02:41:03.030Z,15.85
2019-03-20T02:41:34.279Z,16.57
2019-03-20T02:42:05.487Z,16.57
2019-03-20T02:42:36.691Z,14.83
2019-03-20T02:43:07.915Z,15.48
2019-03-20T02:43:39.112Z,16.35
2019-03-20T02:44:10.333Z,15.32
2019-03-20T02:44:41.526Z,14.35
2019-03-20T02:45:12.767Z,15.32
2019-03-20T02:45:43.960Z,15.05
2019-03-20T02:46:15.241Z,15.32
2019-03-20T02:46:46.465Z,13.80
2019-03-20T02:47:17.666Z,15.15
2019-03-20T02:47:48.884Z,13.95
2019-03-20T02:48:20.079Z,15.05
2019-03-20T02:48:51.291Z,15.15
2019-03-20T02:49:22.540Z,15.28
2019-03-20T02:49:53.764Z,15.60
2019-03-20T02:50:25.006Z,15.68
2019-03-20T02:50:56.233Z,16.17
2019-03-20T02:51:27.454Z,15.95
2019-03-20T02:51:58.668Z,15.72
2019-03-20T02:52:29.884Z,14.45
2019-03-20T02:53:00.904Z,17.07
2019-03-20T02:53:32.138Z,15.55
2019-03-20T02:54:03.305Z,15.48
2019-03-20T02:54:34.561Z,15.05
2019-03-20T02:55:05.767Z,15.18
2019-03-20T02:55:36.981Z,15.23
2019-03-20T02:56:08.213Z,15.48
2019-03-20T02:56:39.418Z,15.80
2019-03-20T02:57:10.631Z,15.72
2019-03-20T02:57:41.858Z,16.30
2019-03-20T02:58:13.050Z,16.05
2019-03-20T02:58:44.276Z,16.30
2019-03-20T02:59:15.481Z,17.67
2019-03-20T02:59:46.715Z,16.50
2019-03-20T03:00:17.956Z,16.93
2019-03-20T03:00:49.141Z,18.65
2019-03-20T03:01:20.363Z,20.72
2019-03-20T03:01:51.573Z,22.00
2019-03-20T03:02:22.761Z,21.07
2019-03-20T03:02:53.982Z,20.57
2019-03-20T03:03:25.182Z,21.17
2019-03-20T03:03:56.397Z,20.45
2019-03-20T03:04:27.603Z,21.73
2019-03-20T03:04:58.819Z,21.25
2019-03-20T03:05:30.011Z,21.77
2019-03-20T03:06:07.303Z,22.40
2019-03-20T03:06:34.195Z,23.18
2019-03-20T03:07:05.388Z,27.58
2019-03-20T03:07:36.610Z,24.75
2019-03-20T03:08:07.826Z,25.27
2019-03-20T03:08:39.087Z,27.80
2019-03-20T03:09:10.301Z,27.32
2019-03-20T03:09:41.487Z,29.20
2019-03-20T03:10:12.701Z,31.10
2019-03-20T03:10:43.913Z,31.60
2019-03-20T03:11:15.119Z,31.85
2019-03-20T03:11:46.361Z,30.85
2019-03-20T03:12:17.563Z,29.30
2019-03-20T03:12:48.762Z,31.00
2019-03-20T03:13:19.984Z,32.90
2019-03-20T03:13:51.185Z,32.73
2019-03-20T03:14:22.380Z,31.27
2019-03-20T03:14:53.586Z,31.62
2019-03-20T03:15:24.817Z,30.27
2019-03-20T03:15:56.013Z,30.82
2019-03-20T03:16:27.212Z,28.20
2019-03-20T03:16:58.462Z,30.30
2019-03-20T03:17:29.687Z,30.00
2019-03-20T03:18:00.900Z,30.65
2019-03-20T03:18:32.110Z,33.20
2019-03-20T03:19:03.325Z,31.10
2019-03-20T03:19:34.529Z,32.08
2019-03-20T03:20:05.744Z,31.42
2019-03-20T03:20:37.007Z,32.33
2019-03-20T03:21:08.220Z,32.65
2019-03-20T03:21:39.427Z,33.30
2019-03-20T03:22:10.649Z,33.42
2019-03-20T03:22:41.860Z,31.27
2019-03-20T03:23:13.050Z,31.73
2019-03-20T03:23:44.362Z,32.10
2019-03-20T03:24:15.568Z,32.08
2019-03-20T03:24:46.934Z,32.50
2019-03-20T03:25:18.166Z,33.83
2019-03-20T03:25:50.307Z,32.38
2019-03-20T03:26:21.666Z,30.75
2019-03-20T03:26:52.880Z,28.52
2019-03-20T03:27:24.098Z,29.07
2019-03-20T03:27:55.302Z,28.02
2019-03-20T03:28:26.494Z,30.60
2019-03-20T03:28:57.729Z,29.75
2019-03-20T03:29:28.945Z,28.27
2019-03-20T03:30:00.255Z,24.90
2019-03-20T03:30:31.915Z,26.68
2019-03-20T03:31:03.136Z,25.92
2019-03-20T03:31:34.429Z,28.20
2019-03-20T03:32:05.637Z,30.45
2019-03-20T03:32:36.844Z,31.00
2019-03-20T03:33:08.042Z,29.12
2019-03-20T03:33:39.266Z,29.30
2019-03-20T03:34:10.548Z,28.98
2019-03-20T03:34:41.719Z,31.35
2019-03-20T03:35:16.978Z,28.95
2019-03-20T03:35:45.861Z,29.75
2019-03-20T03:36:21.452Z,30.80
2019-03-20T03:36:50.018Z,28.12
2019-03-20T03:37:21.206Z,29.37
2019-03-20T03:37:52.411Z,30.20
2019-03-20T03:38:23.627Z,30.88
2019-03-20T03:38:54.815Z,31.93
2019-03-20T03:39:26.071Z,30.95
2019-03-20T03:39:57.278Z,29.45
2019-03-20T03:40:28.494Z,25.65
2019-03-20T03:40:59.707Z,26.70
2019-03-20T03:41:30.915Z,28.07
2019-03-20T03:42:02.125Z,27.70
2019-03-20T03:42:33.361Z,28.45
2019-03-20T03:43:04.584Z,28.07
2019-03-20T03:43:35.790Z,24.32
2019-03-20T03:44:06.993Z,27.27
2019-03-20T03:44:38.234Z,30.08
2019-03-20T03:45:09.446Z,25.90
2019-03-20T03:45:40.652Z,25.90
2019-03-20T03:46:11.888Z,28.95
2019-03-20T03:46:43.094Z,29.02
2019-03-20T03:47:14.309Z,25.00
2019-03-20T03:47:45.521Z,27.20
2019-03-20T03:48:16.723Z,25.80
2019-03-20T03:48:47.938Z,22.60
2019-03-20T03:49:19.170Z,21.55
2019-03-20T03:49:50.470Z,21.00
2019-03-20T03:50:21.685Z,21.73
2019-03-20T03:50:52.891Z,20.52
2019-03-20T03:51:24.144Z,20.02
2019-03-20T03:51:55.357Z,20.05
2019-03-20T03:52:26.569Z,20.92
2019-03-20T03:52:57.783Z,21.70
2019-03-20T03:53:28.974Z,21.82
2019-03-20T03:54:00.209Z,20.00
2019-03-20T03:54:31.396Z,21.23
2019-03-20T03:55:02.615Z,20.30
2019-03-20T03:55:33.874Z,21.55
2019-03-20T03:56:05.088Z,21.30
2019-03-20T03:56:36.291Z,22.75
2019-03-20T03:57:07.497Z,22.87
2019-03-20T03:57:38.699Z,23.42
2019-03-20T03:58:09.920Z,22.87
2019-03-20T03:58:41.121Z,22.22
2019-03-20T03:59:12.328Z,22.58
2019-03-20T03:59:43.538Z,22.50
2019-03-20T04:00:14.760Z,21.80
2019-03-20T04:00:46.040Z,23.55
2019-03-20T04:01:17.250Z,20.95
2019-03-20T04:01:48.454Z,22.73
2019-03-20T04:02:19.673Z,21.80
2019-03-20T04:02:50.886Z,22.70
2019-03-20T04:03:22.206Z,22.55
2019-03-20T04:03:53.394Z,22.48
2019-03-20T04:04:24.596Z,23.10
2019-03-20T04:04:55.809Z,23.02
2019-03-20T04:05:27.071Z,21.75
2019-03-20T04:05:58.282Z,23.67
2019-03-20T04:06:35.655Z,22.87
2019-03-20T04:07:02.426Z,24.75
2019-03-20T04:07:33.612Z,24.95
2019-03-20T04:08:04.828Z,25.17
2019-03-20T04:08:36.023Z,24.67
2019-03-20T04:09:07.239Z,22.65
2019-03-20T04:09:38.451Z,23.18
2019-03-20T04:10:09.649Z,23.05
2019-03-20T04:10:40.978Z,22.90
2019-03-20T04:11:12.186Z,22.75
2019-03-20T04:11:43.394Z,22.98
2019-03-20T04:12:14.593Z,23.20
2019-03-20T04:12:45.910Z,23.35
2019-03-20T04:13:17.096Z,23.32
2019-03-20T04:13:48.308Z,23.55
2019-03-20T04:14:19.542Z,24.37
2019-03-20T04:14:50.773Z,26.02
2019-03-20T04:15:21.973Z,24.72
2019-03-20T04:15:53.173Z,24.27
2019-03-20T04:16:24.385Z,24.55
2019-03-20T04:16:55.598Z,24.25
2019-03-20T04:17:26.832Z,23.73
2019-03-20T04:17:58.044Z,23.18
2019-03-20T04:18:29.246Z,21.62
2019-03-20T04:19:00.462Z,24.50
2019-03-20T04:19:31.673Z,23.18
2019-03-20T04:20:02.879Z,23.42
2019-03-20T04:20:34.211Z,24.10
2019-03-20T04:21:05.435Z,23.15
2019-03-20T04:21:36.671Z,23.65
2019-03-20T04:22:07.882Z,24.05
2019-03-20T04:22:39.097Z,24.00
2019-03-20T04:23:10.317Z,22.52
2019-03-20T04:23:41.525Z,24.63
2019-03-20T04:24:12.738Z,22.65
2019-03-20T04:24:43.937Z,22.35
2019-03-20T04:25:15.144Z,23.12
2019-03-20T04:25:46.349Z,22.40
2019-03-20T04:26:17.569Z,22.30
2019-03-20T04:26:48.815Z,22.15
2019-03-20T04:27:20.025Z,22.30
2019-03-20T04:27:51.229Z,21.80
2019-03-20T04:28:22.541Z,23.20
2019-03-20T04:28:53.740Z,22.75
2019-03-20T04:29:25.802Z,21.65
2019-03-20T04:29:57.007Z,22.13
2019-03-20T04:30:28.225Z,22.25
2019-03-20T04:30:59.436Z,23.35
2019-03-20T04:31:30.654Z,23.52
2019-03-20T04:32:01.857Z,22.70
2019-03-20T04:32:33.086Z,22.73
2019-03-20T04:33:04.361Z,23.52
2019-03-20T04:33:35.585Z,22.05
2019-03-20T04:34:06.796Z,22.82
2019-03-20T04:34:37.991Z,23.32
2019-03-20T04:35:09.200Z,23.25
2019-03-20T04:35:40.400Z,22.58
2019-03-20T04:36:11.617Z,24.27
2019-03-20T04:36:47.733Z,24.18
2019-03-20T04:37:15.757Z,22.67
2019-03-20T04:37:47.005Z,24.67
2019-03-20T04:38:18.223Z,22.20
2019-03-20T04:38:49.449Z,23.00
2019-03-20T04:39:20.649Z,23.02
2019-03-20T04:39:51.872Z,23.27
2019-03-20T04:40:23.158Z,23.57
2019-03-20T04:40:54.363Z,23.98
2019-03-20T04:41:25.578Z,23.30
2019-03-20T04:41:56.784Z,23.47
2019-03-20T04:42:28.016Z,23.12
2019-03-20T04:42:59.251Z,24.18
2019-03-20T04:43:30.500Z,24.50
2019-03-20T04:44:01.706Z,22.45
2019-03-20T04:44:33.236Z,23.67
2019-03-20T04:45:04.431Z,22.07
2019-03-20T04:45:35.641Z,23.22
2019-03-20T04:46:06.847Z,21.62
2019-03-20T04:46:38.045Z,20.97
2019-03-20T04:47:09.258Z,21.70
2019-03-20T04:47:40.469Z,21.37
2019-03-20T04:48:11.683Z,21.57
2019-03-20T04:48:42.930Z,21.42
2019-03-20T04:49:14.141Z,22.05
2019-03-20T04:49:45.393Z,22.10
2019-03-20T04:50:16.600Z,22.15
2019-03-20T04:50:47.822Z,21.80
2019-03-20T04:51:19.020Z,21.80
2019-03-20T04:51:50.225Z,24.92
2019-03-20T04:52:21.437Z,22.13
2019-03-20T04:52:52.654Z,21.65
2019-03-20T04:53:23.842Z,23.98
2019-03-20T04:53:55.051Z,23.02
2019-03-20T04:54:26.264Z,22.62
2019-03-20T04:54:57.505Z,21.73
2019-03-20T04:55:28.750Z,22.80
2019-03-20T04:55:59.953Z,24.27
2019-03-20T04:56:31.168Z,22.45
2019-03-20T04:57:02.372Z,21.87
2019-03-20T04:57:33.580Z,22.02
2019-03-20T04:58:04.798Z,23.27
2019-03-20T04:58:36.004Z,23.83
2019-03-20T04:59:07.220Z,21.80
2019-03-20T04:59:38.448Z,22.45
2019-03-20T05:00:09.696Z,22.62
2019-03-20T05:00:40.960Z,22.30
2019-03-20T05:01:12.169Z,21.75
2019-03-20T05:01:43.375Z,21.62
2019-03-20T05:02:14.591Z,22.85
2019-03-20T05:02:45.790Z,22.60
2019-03-20T05:03:16.991Z,21.97
2019-03-20T05:03:48.206Z,22.67
2019-03-20T05:04:19.421Z,22.70
2019-03-20T05:04:50.628Z,23.05
2019-03-20T05:05:21.847Z,22.05
2019-03-20T05:05:53.085Z,23.85
2019-03-20T05:06:24.296Z,23.92
2019-03-20T05:06:59.043Z,24.55
2019-03-20T05:07:28.448Z,23.02
2019-03-20T05:07:59.661Z,24.10
2019-03-20T05:08:30.880Z,24.77
2019-03-20T05:09:02.073Z,25.12
2019-03-20T05:09:33.285Z,23.77
2019-03-20T05:10:04.507Z,24.80
2019-03-20T05:10:35.773Z,24.32
2019-03-20T05:11:06.987Z,25.02
2019-03-20T05:11:38.198Z,25.15
2019-03-20T05:12:09.413Z,25.37
2019-03-20T05:12:40.636Z,25.65
2019-03-20T05:13:11.855Z,24.95
2019-03-20T05:13:43.068Z,23.02
2019-03-20T05:14:14.269Z,23.10
2019-03-20T05:14:45.483Z,24.32
2019-03-20T05:15:16.695Z,25.92
2019-03-20T05:15:47.945Z,25.77
2019-03-20T05:16:19.158Z,24.00
2019-03-20T05:16:50.391Z,23.60
2019-03-20T05:17:21.594Z,23.90
2019-03-20T05:17:52.802Z,23.67
2019-03-20T05:18:24.027Z,23.92
2019-03-20T05:18:55.233Z,22.90
2019-03-20T05:19:26.453Z,21.85
2019-03-20T05:19:57.677Z,22.17
2019-03-20T05:20:28.898Z,23.25
2019-03-20T05:21:00.121Z,22.80
2019-03-20T05:21:31.334Z,23.15
2019-03-20T05:22:02.549Z,22.62
2019-03-20T05:22:33.746Z,21.85
2019-03-20T05:23:04.963Z,23.30
2019-03-20T05:23:36.199Z,20.77
2019-03-20T05:24:07.397Z,21.02
2019-03-20T05:24:38.613Z,23.92
2019-03-20T05:25:09.879Z,21.82
2019-03-20T05:25:41.107Z,21.52
2019-03-20T05:26:12.766Z,21.20
2019-03-20T05:26:43.999Z,19.85
2019-03-20T05:27:15.226Z,20.97
2019-03-20T05:27:46.452Z,18.60
2019-03-20T05:28:17.695Z,19.40
2019-03-20T05:28:48.905Z,19.20
2019-03-20T05:29:20.117Z,20.43
2019-03-20T05:29:51.324Z,20.85
2019-03-20T05:30:22.580Z,20.68
2019-03-20T05:30:53.803Z,20.37
2019-03-20T05:31:25.004Z,21.20
2019-03-20T05:31:56.215Z,21.10
2019-03-20T05:32:27.430Z,19.98
2019-03-20T05:32:58.638Z,20.15
2019-03-20T05:33:29.897Z,19.15
2019-03-20T05:34:01.116Z,19.45
2019-03-20T05:34:32.326Z,20.15
2019-03-20T05:35:03.576Z,20.48
2019-03-20T05:35:34.808Z,20.45
2019-03-20T05:36:06.018Z,20.48
2019-03-20T05:36:37.229Z,19.48
2019-03-20T05:37:10.745Z,20.65
2019-03-20T05:37:41.374Z,19.87
2019-03-20T05:38:12.580Z,20.23
2019-03-20T05:38:43.838Z,21.35
2019-03-20T05:39:15.938Z,20.43
2019-03-20T05:39:47.345Z,20.57
2019-03-20T05:40:18.556Z,20.62
2019-03-20T05:40:49.759Z,19.48
2019-03-20T05:41:20.975Z,22.48
2019-03-20T05:41:52.186Z,19.55
2019-03-20T05:42:23.396Z,20.43
2019-03-20T05:42:54.630Z,19.73
2019-03-20T05:43:25.841Z,20.48
2019-03-20T05:43:57.039Z,20.30
2019-03-20T05:44:28.255Z,21.10
2019-03-20T05:44:59.491Z,22.32
2019-03-20T05:45:30.768Z,22.30
2019-03-20T05:46:01.988Z,21.37
2019-03-20T05:46:33.197Z,21.60
2019-03-20T05:47:04.395Z,21.82
2019-03-20T05:47:35.591Z,21.55
2019-03-20T05:48:06.847Z,21.45
2019-03-20T05:48:38.054Z,21.25
2019-03-20T05:49:09.266Z,21.07
2019-03-20T05:49:40.466Z,21.93
2019-03-20T05:50:11.699Z,21.65
2019-03-20T05:50:42.981Z,19.87
2019-03-20T05:51:14.198Z,19.32
2019-03-20T05:51:45.401Z,18.85
2019-03-20T05:52:16.661Z,21.07
2019-03-20T05:52:47.878Z,19.67
2019-03-20T05:53:19.095Z,19.35
2019-03-20T05:53:50.304Z,18.42
2019-03-20T05:54:21.508Z,19.35
2019-03-20T05:54:52.730Z,18.60
2019-03-20T05:55:23.944Z,17.20
2019-03-20T05:55:55.199Z,17.35
2019-03-20T05:56:26.415Z,17.62
2019-03-20T05:56:57.624Z,17.32
2019-03-20T05:57:28.850Z,17.45
2019-03-20T05:58:00.069Z,17.50
2019-03-20T05:58:31.248Z,19.27
2019-03-20T05:59:02.449Z,17.12
2019-03-20T05:59:33.664Z,17.10
2019-03-20T06:00:05.218Z,16.93
2019-03-20T06:00:36.408Z,16.90
2019-03-20T06:01:07.678Z,17.20
2019-03-20T06:01:38.941Z,15.25
2019-03-20T06:02:10.147Z,17.65
2019-03-20T06:02:41.365Z,17.75
2019-03-20T06:03:12.582Z,17.42
2019-03-20T06:03:43.785Z,16.60
2019-03-20T06:04:14.994Z,15.88
2019-03-20T06:04:46.204Z,16.62
2019-03-20T06:05:17.423Z,16.00
2019-03-20T06:05:48.663Z,17.23
2019-03-20T06:06:19.886Z,17.23
2019-03-20T06:06:51.109Z,16.40
2019-03-20T06:07:22.371Z,17.07
2019-03-20T06:07:53.583Z,17.27
2019-03-20T06:08:24.827Z,15.95
2019-03-20T06:08:56.029Z,16.55
2019-03-20T06:09:27.234Z,16.82
2019-03-20T06:09:58.450Z,17.30
2019-03-20T06:10:29.654Z,16.20
2019-03-20T06:11:00.881Z,16.12
2019-03-20T06:11:32.087Z,17.37
2019-03-20T06:12:03.315Z,15.63
2019-03-20T06:12:34.568Z,15.40
2019-03-20T06:13:05.792Z,14.25
2019-03-20T06:13:37.963Z,15.90
2019-03-20T06:14:09.167Z,14.95
2019-03-20T06:14:40.382Z,15.85
2019-03-20T06:15:11.652Z,16.93
2019-03-20T06:15:42.852Z,16.57
2019-03-20T06:16:15.153Z,16.20
2019-03-20T06:16:46.353Z,14.35
2019-03-20T06:17:17.567Z,15.20
2019-03-20T06:17:48.831Z,15.65
2019-03-20T06:18:20.085Z,14.60
2019-03-20T06:18:51.297Z,14.80
2019-03-20T06:19:22.505Z,14.50
2019-03-20T06:19:53.730Z,15.70
2019-03-20T06:20:24.963Z,15.18
2019-03-20T06:20:56.183Z,15.93
2019-03-20T06:21:27.408Z,15.32
2019-03-20T06:21:58.619Z,15.10
2019-03-20T06:22:29.843Z,14.30
2019-03-20T06:23:01.064Z,15.25
2019-03-20T06:23:32.310Z,15.13
2019-03-20T06:24:03.560Z,13.70
2019-03-20T06:24:34.743Z,14.18
2019-03-20T06:25:05.959Z,14.47
2019-03-20T06:25:37.212Z,13.90
2019-03-20T06:26:08.430Z,14.30
2019-03-20T06:26:39.639Z,14.95
2019-03-20T06:27:10.853Z,17.10
2019-03-20T06:27:42.071Z,14.33
2019-03-20T06:28:13.287Z,14.70
2019-03-20T06:28:44.485Z,20.88
2019-03-20T06:29:15.683Z,15.48
2019-03-20T06:29:46.903Z,14.30
2019-03-20T06:30:19.095Z,14.35
2019-03-20T06:30:50.324Z,14.40
2019-03-20T06:31:21.571Z,15.58
2019-03-20T06:31:52.781Z,19.52
2019-03-20T06:32:24.014Z,15.18
2019-03-20T06:32:55.224Z,19.55
2019-03-20T06:33:26.439Z,19.25
2019-03-20T06:33:57.649Z,17.20
2019-03-20T06:34:28.852Z,17.92
2019-03-20T06:35:00.065Z,15.20
2019-03-20T06:35:31.340Z,15.05
2019-03-20T06:36:02.564Z,16.42
2019-03-20T06:36:33.772Z,16.20
2019-03-20T06:37:04.990Z,14.13
2019-03-20T06:37:36.210Z,28.87
2019-03-20T06:38:07.417Z,16.23
2019-03-20T06:38:38.633Z,14.75
2019-03-20T06:39:09.868Z,18.27
2019-03-20T06:39:41.080Z,17.23
2019-03-20T06:40:12.294Z,17.73
2019-03-20T06:40:43.554Z,14.65
2019-03-20T06:41:14.774Z,15.85
2019-03-20T06:41:45.983Z,15.93
2019-03-20T06:42:17.180Z,14.85